Flight Track Log - Related Links

Times and Time Zones

All times are in EDT time to prevent confusion due to time zone crossing. See the AWE719 flight status page for this flight to view local times or setup timezone preferences in your user account.

Time Position Orientation Groundspeed Altitude Reporting Facility
EDT Latitude Longitude Course Direction KTS MPH feet Rate Location/Type
Sat 06:54:17 PM 39.9609 -75.0994 29° Northeast 282 325 3,400  Level FlightAware ADS-B (KPHL)
Sat 06:55:16 PM 40.0245 -75.1062 302° West 267 307 5,500 2,100 Climbing FlightAware ADS-B (KPHL)
Sat 06:56:17 PM 40.0199 -75.2052 254° West 269 310 7,600 1,664 Climbing FlightAware ADS-B (KPHL)
Sat 06:57:15 PM 40.0001 -75.2979 254° West 275 316 8,800 1,210 Climbing FlightAware ADS-B (KPHL)
Sat 06:58:16 PM 39.9789 -75.3959 254° West 282 325 10,000 1,031 Climbing FlightAware ADS-B (KPHL)
Sat 06:59:23 PM 39.9528 -75.5152 254° West 330 380 11,000 750 Climbing FlightAware ADS-B
Sat 07:00:16 PM 39.9382 -75.6246 270° West 369 425 11,500 1,526 Climbing FlightAware ADS-B (KPHL)
Sat 07:01:17 PM 39.9377 -75.7277 270° West 355 409 13,900 1,835 Climbing FlightAware ADS-B (KPHL)
Sat 07:02:17 PM 39.9367 -75.8857 270° West 367 422 15,200 1,188 Climbing FlightAware ADS-B (KPHL)
Sat 07:02:58 PM 39.9362 -75.9745 270° West 379 436 15,900 1,317 Climbing FlightAware ADS-B (LFML / MRS)
Sat 07:03:39 PM 39.9354 -76.0695 270° West 377 434 17,000 1,481 Climbing FlightAware ADS-B (LFML / MRS)
Sat 07:04:15 PM 39.9347 -76.1580 269° West 383 441 17,800 1,216 Climbing FlightAware ADS-B (LFML / MRS)
Sat 07:04:53 PM 39.9340 -76.2377 269° West 389 448 18,500 1,217 Climbing FlightAware ADS-B (LFML / MRS)
Sat 07:05:24 PM 39.9332 -76.3197 269° West 391 450 19,200 1,161 Climbing FlightAware ADS-B
Sat 07:05:55 PM 39.9323 -76.3902 268° West 395 455 19,700 941 Climbing FlightAware ADS-B (LFML / MRS)
Sat 07:06:15 PM 39.9257 -76.4374 253° West 403 464 20,000 1,017 Climbing FlightAware ADS-B (LFML / MRS)
Sat 07:06:54 PM 39.9009 -76.5311 251° West 408 470 20,700 1,099 Climbing FlightAware ADS-B (LFML / MRS)
Sat 07:07:26 PM 39.8829 -76.5987 251° West 411 473 21,300 1,013 Climbing FlightAware ADS-B
Sat 07:08:11 PM 39.8580 -76.6915 251° West 419 482 22,000 1,011 Climbing FlightAware ADS-B (LFML / MRS)
Sat 07:08:55 PM 39.8251 -76.8137 251° West 422 486 22,800 1,000 Climbing FlightAware ADS-B (LFML / MRS)
Sat 07:09:23 PM 39.8071 -76.8801 251° West 426 490 23,200 800 Climbing FlightAware ADS-B (KJYO)
Sat 07:09:25 PM 39.8048 -76.8886 251° West 427 491 23,200 600 Level FlightAware ADS-B
Sat 07:10:03 PM 39.7805 -76.9780 251° West 435 501 23,600 682 Climbing FlightAware ADS-B (KJYO)
Sat 07:10:09 PM 39.7988 -76.9107 251° West 436 502 23,700 1,448 Climbing FlightAware ADS-B
Sat 07:10:32 PM 39.7605 -77.0511 251° West 432 497 24,300 1,200 Climbing FlightAware ADS-B (KJYO)
Sat 07:10:54 PM 39.7450 -77.1079 251° West 437 503 24,600 774 Climbing FlightAware ADS-B (LFML / MRS)
Sat 07:11:03 PM 39.7389 -77.1304 251° West 438 504 24,700 878 Climbing FlightAware ADS-B (KJYO)
Sat 07:11:35 PM 39.7174 -77.2090 251° West 440 506 25,200 913 Climbing FlightAware ADS-B (LFML / MRS)
Sat 07:11:49 PM 39.7082 -77.2424 251° West 440 506 25,400 977 Climbing FlightAware ADS-B (KJYO)
Sat 07:12:18 PM 39.6888 -77.3130 251° West 440 506 25,900 1,171 Climbing FlightAware ADS-B (KJYO)
Sat 07:12:30 PM 39.6799 -77.3449 250° West 441 507 26,200 1,091 Climbing FlightAware ADS-B (LFML / MRS)
Sat 07:12:51 PM 39.6661 -77.3949 251° West 439 505 26,500 778 Climbing FlightAware ADS-B (KJYO)
Sat 07:13:24 PM 39.6433 -77.4773 251° West 441 507 26,900 774 Climbing FlightAware ADS-B (KJYO)
Sat 07:13:53 PM 39.6227 -77.5514 251° West 446 513 27,300 712 Climbing FlightAware ADS-B (KJYO)
Sat 07:14:23 PM 39.6025 -77.6240 251° West 449 517 27,600 600 Climbing FlightAware ADS-B (KJYO)
Sat 07:14:53 PM 39.5796 -77.7058 251° West 452 520 27,900 689 Climbing FlightAware ADS-B (KJYO)
Sat 07:15:24 PM 39.5579 -77.7831 251° West 455 524 28,300 700 Climbing FlightAware ADS-B (KJYO)
Sat 07:15:53 PM 39.5368 -77.8583 250° West 457 526 28,600 712 Climbing FlightAware ADS-B (KJYO)
Sat 07:16:23 PM 39.5153 -77.9346 250° West 459 528 29,000 800 Climbing FlightAware ADS-B (KJYO)
Sat 07:16:53 PM 39.4930 -78.0134 250° West 460 529 29,400 900 Climbing FlightAware ADS-B (KJYO)
Sat 07:17:23 PM 39.4710 -78.0909 250° West 457 526 29,900 514 Climbing FlightAware ADS-B (KJYO)
Sat 07:18:03 PM 39.4417 -78.1939 250° West 467 537 30,000 87 Climbing FlightAware ADS-B (KJYO)
Sat 07:18:32 PM 39.4208 -78.2668 250° West 471 542 30,000  Level FlightAware ADS-B (KJYO)
Sat 07:19:56 PM 39.3603 -78.4797 250° West 467 537 30,000  Level Washington Center
Sat 07:20:57 PM 39.3147 -78.6392 250° West 467 537 30,000  Level Washington Center
Sat 07:21:55 PM 39.2689 -78.7981 250° West 467 537 30,000  Level Washington Center
Sat 07:22:56 PM 39.2228 -78.9542 249° West 467 537 30,000  Level Washington Center
Sat 07:23:55 PM 39.1769 -79.1072 249° West 467 537 30,000  Level Washington Center
Sat 07:24:55 PM 39.1372 -79.2497 250° West 467 537 30,000  Level Washington Center
Sat 07:25:56 PM 39.0881 -79.4211 250° West 467 537 30,000  Level Washington Center
Sat 07:32:10 PM 38.7892 -80.3850 249° West 460 529 30,000  Level FlightAware ADS-B
Sat 07:32:45 PM 38.7619 -80.4730 249° West 459 528 30,000  Level FlightAware ADS-B
Sat 07:33:27 PM 38.7285 -80.5803 249° West 458 527 30,000  Level FlightAware ADS-B
Sat 07:34:24 PM 38.6834 -80.7245 249° West 457 526 30,000  Level FlightAware ADS-B
Sat 07:35:01 PM 38.6547 -80.8160 249° West 458 527 30,000  Level FlightAware ADS-B
Sat 07:35:51 PM 38.6200 -80.9222 249° West 461 531 30,000  Level Indianapolis Center
Sat 07:36:52 PM 38.5719 -81.0731 248° West 460 529 30,000  Level Indianapolis Center
Sat 07:37:53 PM 38.5239 -81.2253 248° West 460 529 30,000  Level Indianapolis Center
Sat 07:38:54 PM 38.4742 -81.3797 248° West 460 529 30,000  Level Indianapolis Center
Sat 07:39:55 PM 38.4247 -81.5344 248° West 460 529 30,000  Level Indianapolis Center
Sat 07:40:56 PM 38.3764 -81.6875 248° West 461 531 30,000  Level Indianapolis Center
Sat 07:41:58 PM 38.3292 -81.8394 248° West 460 529 30,000  Level Indianapolis Center
Sat 07:42:59 PM 38.2869 -81.9933 251° West 460 529 30,000  Level Indianapolis Center
Sat 07:44:00 PM 38.2442 -82.1450 250° West 459 528 30,000  Level Indianapolis Center
Sat 07:45:01 PM 38.2014 -82.2958 250° West 457 526 30,000  Level Indianapolis Center
Sat 07:50:14 PM 37.9661 -83.1132 250° West 453 521 30,000  Level FlightAware ADS-B
Sat 07:55:12 PM 37.7500 -83.8403 249° West 445 512 30,000  Level FlightAware ADS-B
Sat 07:56:13 PM 37.7038 -83.9928 249° West 445 512 30,000  Level FlightAware ADS-B
Sat 07:57:00 PM 37.6687 -84.1084 249° West 447 514 30,000  Level FlightAware ADS-B
Sat 07:58:12 PM 37.6165 -84.2790 249° West 448 516 30,000  Level FlightAware ADS-B
Sat 07:59:13 PM 37.5691 -84.4327 249° West 456 525 30,000  Level FlightAware ADS-B
Sat 08:00:13 PM 37.5227 -84.5828 249° West 453 521 30,000  Level FlightAware ADS-B
Sat 08:01:14 PM 37.4770 -84.7302 249° West 452 520 30,000  Level FlightAware ADS-B
Sat 08:02:14 PM 37.4312 -84.8780 249° West 452 520 30,000  Level FlightAware ADS-B
Sat 08:02:55 PM 37.4002 -84.9771 249° West 451 519 30,000  Level FlightAware ADS-B
Sat 08:03:34 PM 37.3698 -85.0745 249° West 453 521 30,000  Level FlightAware ADS-B
Sat 08:04:05 PM 37.3462 -85.1493 248° West 453 521 30,000  Level FlightAware ADS-B
Sat 08:04:36 PM 37.3227 -85.2235 249° West 451 519 30,000  Level FlightAware ADS-B
Sat 08:05:07 PM 37.2984 -85.3004 248° West 452 520 30,000  Level FlightAware ADS-B
Sat 08:05:52 PM 37.2657 -85.4029 248° West 451 519 30,000  Level FlightAware ADS-B
Sat 08:06:22 PM 37.2406 -85.4816 248° West 451 519 30,000  Level FlightAware ADS-B
Sat 08:07:01 PM 37.2098 -85.5782 248° West 450 518 30,000  Level FlightAware ADS-B
Sat 08:07:31 PM 37.1873 -85.6484 248° West 449 517 30,000  Level FlightAware ADS-B
Sat 08:08:26 PM 37.1458 -85.7772 248° West 447 514 30,000  Level FlightAware ADS-B
Sat 08:09:08 PM 37.1116 -85.8827 248° West 448 516 30,000  Level FlightAware ADS-B
Sat 08:10:26 PM 37.0512 -86.0687 248° West 452 520 30,000  Level FlightAware ADS-B
Sat 08:11:25 PM 37.0035 -86.2147 248° West 455 524 30,000 60 Level FlightAware ADS-B
Sat 08:12:06 PM 36.9724 -86.3094 248° West 456 525 30,100 79 Climbing FlightAware ADS-B
Sat 08:12:41 PM 36.9454 -86.3918 249° West 456 525 30,100 -91 Level FlightAware ADS-B
Sat 08:13:12 PM 36.9242 -86.4746 256° West 457 526 30,000 -79 Descending FlightAware ADS-B
Sat 08:13:57 PM 36.9043 -86.5930 259° West 457 526 30,000 77 Level FlightAware ADS-B
Sat 08:14:30 PM 36.8901 -86.6797 259° West 456 525 30,100  Climbing FlightAware ADS-B
Sat 08:15:01 PM 36.8776 -86.7572 259° West 452 520 30,000 -63 Descending FlightAware ADS-B
Sat 08:16:06 PM 36.8893 -86.6848 259° West 446 513 30,000  Level FlightAware ADS-B
Sat 08:16:37 PM 36.8419 -86.9744 259° West 452 520 30,000  Level Indianapolis Center
Sat 08:17:23 PM 36.8219 -87.0989 259° West 442 509 30,000  Level Memphis Center
Sat 08:18:24 PM 36.7964 -87.2486 258° West 441 507 30,000  Level Memphis Center
Sat 08:19:25 PM 36.7708 -87.3986 258° West 441 507 30,000  Level Memphis Center
Sat 08:20:27 PM 36.7456 -87.5492 258° West 441 507 30,000  Level Memphis Center
Sat 08:21:28 PM 36.7203 -87.7006 258° West 442 509 30,000  Level Memphis Center
Sat 08:22:29 PM 36.6922 -87.8528 257° West 445 512 30,000  Level Memphis Center
Sat 08:23:31 PM 36.6672 -88.0064 259° West 447 514 30,000  Level Memphis Center
Sat 08:24:32 PM 36.6367 -88.1797 258° West 447 514 30,000  Level Memphis Center
Sat 08:25:33 PM 36.6100 -88.3325 258° West 448 516 30,000  Level Memphis Center
Sat 08:26:34 PM 36.5814 -88.4842 257° West 448 516 30,000  Level Memphis Center
Sat 08:27:35 PM 36.5547 -88.6344 258° West 448 516 30,000  Level Memphis Center
Sat 08:28:37 PM 36.5239 -88.7842 256° West 448 516 30,000  Level Memphis Center
Sat 08:29:38 PM 36.4817 -88.9289 250° West 448 516 30,000  Level Memphis Center
Sat 08:30:39 PM 36.4431 -89.0753 252° West 447 514 30,000  Level Memphis Center
Sat 08:31:40 PM 36.4031 -89.2239 252° West 445 512 30,000  Level Memphis Center
Sat 08:32:41 PM 36.3633 -89.3717 252° West 446 513 30,000  Level Memphis Center
Sat 08:33:42 PM 36.3211 -89.5358 252° West 459 528 30,000  Level Memphis Center
Sat 08:34:43 PM 36.2819 -89.6825 252° West 451 519 30,000  Level Memphis Center
Sat 08:35:44 PM 36.2436 -89.8294 252° West 451 519 30,000  Level Memphis Center
Sat 08:36:45 PM 36.2047 -89.9772 252° West 451 519 30,000  Level Memphis Center
Sat 08:37:47 PM 36.1653 -90.1256 252° West 451 519 30,000  Level Memphis Center
Sat 08:38:48 PM 36.1264 -90.2758 252° West 455 524 30,000  Level Memphis Center
Sat 08:39:49 PM 36.0878 -90.4256 252° West 455 524 30,000  Level Memphis Center
Sat 08:40:50 PM 36.0414 -90.6053 252° West 456 525 30,000  Level Memphis Center
Sat 08:41:51 PM 36.0019 -90.7542 252° West 456 525 30,000  Level Memphis Center
Sat 08:42:52 PM 35.9644 -90.9033 253° West 456 525 30,000  Level Memphis Center
Sat 08:43:53 PM 35.9247 -91.0533 252° West 456 525 30,000  Level Memphis Center
Sat 08:44:54 PM 35.8992 -91.2058 258° West 456 525 30,000  Level Memphis Center
Sat 08:45:55 PM 35.8794 -91.3608 261° West 456 525 30,000  Level Memphis Center
Sat 08:51:30 PM 35.7381 -92.2430 259° West 466 536 30,000 49 Level FlightAware ADS-B
Sat 08:52:03 PM 35.7237 -92.3302 259° West 467 537 30,300 667 Climbing FlightAware ADS-B
Sat 08:52:51 PM 35.7056 -92.4400 259° West 469 540 30,900 413 Climbing FlightAware ADS-B
Sat 08:56:10 PM 35.6166 -92.9719 258° West 469 540 32,000 236 Climbing FlightAware ADS-B
Sat 08:57:31 PM 35.5810 -93.1801 258° West 469 540 32,000  Level FlightAware ADS-B
Sat 08:58:12 PM 35.5624 -93.2882 258° West 469 540 32,000  Level FlightAware ADS-B
Sat 08:58:50 PM 35.5448 -93.3899 258° West 469 540 32,000  Level FlightAware ADS-B
Sat 08:59:29 PM 35.5272 -93.4908 258° West 469 540 32,000  Level FlightAware ADS-B
Sat 09:00:13 PM 35.5072 -93.6055 258° West 469 540 32,000  Level FlightAware ADS-B
Sat 09:00:52 PM 35.4969 -93.6643 258° West 470 541 32,000  Level FlightAware ADS-B
Sat 09:02:14 PM 35.4556 -93.9028 258° West 469 540 32,000  Level Fort Worth Center
Sat 09:03:15 PM 35.4269 -94.0633 258° West 469 540 32,000  Level Fort Worth Center
Sat 09:04:17 PM 35.3981 -94.2208 257° West 470 541 32,000  Level Fort Worth Center
Sat 09:05:15 PM 35.3892 -94.3819 266° West 471 542 32,000  Level Memphis Center
Sat 09:06:16 PM 35.3900 -94.5436 270° West 471 542 32,000  Level Memphis Center
Sat 09:07:17 PM 35.3906 -94.7053 270° West 471 542 32,000  Level Memphis Center
Sat 09:08:18 PM 35.3903 -94.8669 270° West 471 542 32,000  Level Memphis Center
Sat 09:09:24 PM 35.3922 -95.0253 271° West 471 542 32,000  Level Fort Worth Center
Sat 09:10:26 PM 35.3925 -95.2203 270° West 471 542 32,000  Level Fort Worth Center
Sat 09:11:27 PM 35.3925 -95.3825 270° West 473 544 32,000  Level Fort Worth Center
Sat 09:12:29 PM 35.3922 -95.5439 270° West 473 544 32,000  Level Fort Worth Center
Sat 09:13:30 PM 35.3914 -95.7064 270° West 474 545 32,000  Level Fort Worth Center
Sat 09:14:32 PM 35.3908 -95.8667 270° West 471 542 32,000  Level Fort Worth Center
Sat 09:15:33 PM 35.3894 -96.0183 269° West 473 544 32,000  Level Fort Worth Center
Sat 09:16:35 PM 35.3906 -96.1783 271° West 470 541 32,000  Level Fort Worth Center
Sat 09:22:26 PM 35.3812 -97.1433 269° West 467 537 32,000  Level FlightAware ADS-B
Sat 09:23:55 PM 35.3780 -97.3758 269° West 465 535 32,000  Level FlightAware ADS-B
Sat 09:24:29 PM 35.3765 -97.4653 269° West 465 535 32,000  Level FlightAware ADS-B
Sat 09:25:07 PM 35.3751 -97.5486 269° West 466 536 32,000  Level FlightAware ADS-B
Sat 09:25:41 PM 35.3733 -97.6551 269° West 467 537 32,000  Level FlightAware ADS-B
Sat 09:26:50 PM 35.3706 -97.8125 269° West 468 539 32,000  Level Fort Worth Center
Sat 09:27:51 PM 35.3681 -97.9708 269° West 468 539 32,000  Level Fort Worth Center
Sat 09:28:53 PM 35.3647 -98.1303 269° West 468 539 32,000  Level Fort Worth Center
Sat 09:29:54 PM 35.3608 -98.3197 269° West 466 536 32,000 -49 Level Fort Worth Center
Sat 09:30:55 PM 35.3567 -98.4817 268° West 465 535 31,900  Descending Fort Worth Center
Sat 09:37:09 PM 35.3297 -99.4246 268° West 466 536 32,000 13 Climbing FlightAware ADS-B (KBFK)
Sat 09:38:20 PM 35.3221 -99.6545 268° West 464 534 32,000  Level FlightAware ADS-B (KBFK)
Sat 09:40:25 PM 35.3107 -99.9759 268° West 464 534 32,000  Level FlightAware ADS-B (KBFK)
Sat 09:41:09 PM 35.3081 -100.0728 268° West 466 536 32,000  Level Fort Worth Center
Sat 09:42:11 PM 35.3022 -100.2317 267° West 466 536 32,000  Level Fort Worth Center
Sat 09:43:12 PM 35.2950 -100.4222 267° West 466 536 32,000  Level Fort Worth Center
Sat 09:44:13 PM 35.2881 -100.5786 267° West 464 534 32,000 -49 Level Fort Worth Center
Sat 09:45:15 PM 35.2817 -100.7350 267° West 463 533 31,900  Descending Fort Worth Center
Sat 09:46:16 PM 35.2756 -100.8747 267° West 462 532 32,000 49 Climbing Fort Worth Center
Sat 09:47:17 PM 35.2681 -101.0303 267° West 460 529 32,000  Level Fort Worth Center
Sat 09:48:19 PM 35.2594 -101.2189 267° West 461 531 32,000 49 Level Fort Worth Center
Sat 09:49:20 PM 35.2525 -101.3758 267° West 462 532 32,100  Climbing Fort Worth Center
Sat 09:50:21 PM 35.2433 -101.5319 266° West 462 532 32,000 -49 Descending Fort Worth Center
Sat 09:51:23 PM 35.2433 -101.6775 270° West 462 532 32,000  Level Fort Worth Center
Sat 09:52:24 PM 35.2692 -101.8317 282° West 465 535 32,000  Level Fort Worth Center
Sat 09:53:25 PM 35.3167 -102.0086 288° West 462 532 32,000  Level Fort Worth Center
Sat 09:54:26 PM 35.3561 -102.1575 288° West 461 531 32,000  Level Fort Worth Center
Sat 09:55:28 PM 35.3950 -102.3058 288° West 461 531 32,000  Level Fort Worth Center
Sat 09:56:29 PM 35.4328 -102.4528 288° West 458 527 32,000  Level Fort Worth Center
Sat 10:01:53 PM 35.6628 -103.2523 304° West 457 526 32,000  Level FlightAware ADS-B (KROW)
Sat 10:01:56 PM 35.6654 -103.2570 304° West 457 526 32,000  Level FlightAware ADS-B (KROW)
Sat 10:02:47 PM 35.7175 -103.3508 304° West 457 526 32,000  Level Albuquerque Center
Sat 10:03:48 PM 35.7867 -103.4828 303° West 457 526 32,000  Level Albuquerque Center
Sat 10:04:49 PM 35.8569 -103.6158 303° West 457 526 32,000  Level Albuquerque Center
Sat 10:05:51 PM 35.9378 -103.7717 303° West 458 527 32,000  Level Albuquerque Center
Sat 10:06:52 PM 36.0050 -103.9069 302° West 458 527 32,000  Level Albuquerque Center
Sat 10:07:53 PM 36.0711 -104.0442 301° West 458 527 32,000  Level Albuquerque Center
Sat 10:08:55 PM 36.1386 -104.1811 301° West 460 529 32,000  Level Albuquerque Center
Sat 10:09:56 PM 36.2061 -104.3189 301° West 462 532 32,000  Level Albuquerque Center
Sat 10:10:57 PM 36.2733 -104.4572 301° West 463 533 32,000  Level Albuquerque Center
Sat 10:11:59 PM 36.3364 -104.5981 299° West 463 533 32,000  Level Albuquerque Center
Sat 10:13:00 PM 36.4003 -104.7408 299° West 466 536 32,000  Level Albuquerque Center
Sat 10:18:30 PM 36.7048 -105.5827 285° West 477 549 32,000  Level FlightAware ADS-B
Sat 10:19:33 PM 36.7414 -105.7518 285° West 473 544 32,000  Level FlightAware ADS-B
Sat 10:20:35 PM 36.7759 -105.9131 285° West 471 542 32,000  Level FlightAware ADS-B
Sat 10:21:09 PM 36.7953 -106.0042 285° West 471 542 32,000  Level FlightAware ADS-B (KGUC)
Sat 10:21:40 PM 36.8123 -106.0844 285° West 471 542 32,000  Level FlightAware ADS-B (KGUC)
Sat 10:22:10 PM 36.8268 -106.1528 285° West 470 541 32,000 95 Level FlightAware ADS-B (KGUC)
Sat 10:22:43 PM 36.8472 -106.2498 285° West 468 539 32,100 91 Climbing FlightAware ADS-B
Sat 10:23:16 PM 36.8656 -106.3374 285° West 466 536 32,100 -95 Level FlightAware ADS-B (KGUC)
Sat 10:23:46 PM 36.8815 -106.4134 285° West 465 535 32,000 -100 Descending FlightAware ADS-B
Sat 10:24:16 PM 36.8979 -106.4924 285° West 465 535 32,000  Level FlightAware ADS-B
Sat 10:24:46 PM 36.9135 -106.5673 285° West 465 535 32,000  Level FlightAware ADS-B
Sat 10:25:20 PM 36.9324 -106.6587 284° West 466 536 32,000  Level FlightAware ADS-B (KABQ)
Sat 10:25:50 PM 36.9486 -106.7368 284° West 467 537 32,000  Level FlightAware ADS-B (KGUC)
Sat 10:26:20 PM 36.9648 -106.8157 284° West 471 542 32,000  Level FlightAware ADS-B (KGUC)
Sat 10:26:57 PM 36.9824 -106.9020 284° West 473 544 32,000 87 Level FlightAware ADS-B
Sat 10:27:29 PM 37.0014 -106.9950 284° West 473 544 32,100 95 Climbing FlightAware ADS-B
Sat 10:28:00 PM 37.0185 -107.0793 284° West 473 544 32,100 -98 Level FlightAware ADS-B (KGUC)
Sat 10:28:30 PM 37.0344 -107.1581 284° West 475 547 32,000 -100 Descending FlightAware ADS-B (KGUC)
Sat 10:29:00 PM 37.0510 -107.2398 284° West 475 547 32,000 100 Level FlightAware ADS-B (KGUC)
Sat 10:29:30 PM 37.0669 -107.3196 284° West 475 547 32,100  Climbing FlightAware ADS-B (KGUC)
Sat 10:30:00 PM 37.0829 -107.3997 284° West 475 547 32,000 -100 Descending FlightAware ADS-B (KGUC)
Sat 10:30:30 PM 37.0986 -107.4785 284° West 475 547 32,000  Level FlightAware ADS-B (KGUC)
Sat 10:31:00 PM 37.1144 -107.5582 284° West 474 545 32,000  Level FlightAware ADS-B (KGUC)
Sat 10:31:38 PM 37.1348 -107.6613 284° West 472 543 32,000  Level FlightAware ADS-B
Sat 10:32:09 PM 37.1508 -107.7425 284° West 472 543 32,000  Level FlightAware ADS-B
Sat 10:32:39 PM 37.1656 -107.8182 284° West 470 541 32,000  Level FlightAware ADS-B
Sat 10:33:10 PM 37.1823 -107.9040 284° West 470 541 32,000  Level FlightAware ADS-B (KGUC)
Sat 10:33:40 PM 37.1976 -107.9829 284° West 471 542 32,000  Level FlightAware ADS-B (KGUC)
Sat 10:34:10 PM 37.2130 -108.0619 284° West 472 543 32,000  Level FlightAware ADS-B (KGUC)
Sat 10:34:40 PM 37.2287 -108.1432 284° West 472 543 32,000  Level FlightAware ADS-B (KGUC)
Sat 10:35:10 PM 37.2439 -108.2230 283° West 473 544 32,000  Level FlightAware ADS-B (KGUC)
Sat 10:35:40 PM 37.2590 -108.3018 283° West 473 544 32,000  Level FlightAware ADS-B (KGUC)
Sat 10:36:14 PM 37.2753 -108.3873 283° West 471 542 32,000  Level FlightAware ADS-B
Sat 10:36:49 PM 37.2939 -108.4848 283° West 471 542 32,000  Level FlightAware ADS-B
Sat 10:37:20 PM 37.3096 -108.5684 283° West 469 540 32,000  Level FlightAware ADS-B (KGUC)
Sat 10:37:51 PM 37.3250 -108.6506 283° West 469 540 32,000  Level FlightAware ADS-B
Sat 10:38:22 PM 37.3402 -108.7316 283° West 470 541 32,000  Level FlightAware ADS-B
Sat 10:38:54 PM 37.3562 -108.8176 283° West 471 542 32,000  Level FlightAware ADS-B
Sat 10:39:24 PM 37.3708 -108.8968 283° West 470 541 32,000  Level FlightAware ADS-B
Sat 10:39:57 PM 37.3869 -108.9840 283° West 471 542 32,000  Level FlightAware ADS-B
Sat 10:40:27 PM 37.4019 -109.0654 283° West 471 542 32,000  Level FlightAware ADS-B
Sat 10:41:00 PM 37.4177 -109.1514 283° West 471 542 32,000  Level FlightAware ADS-B
Sat 10:41:30 PM 37.4325 -109.2325 283° West 471 542 32,000  Level FlightAware ADS-B (KGUC)
Sat 10:42:00 PM 37.4472 -109.3132 283° West 470 541 32,000  Level FlightAware ADS-B (KGUC)
Sat 10:42:30 PM 37.4615 -109.3924 283° West 470 541 32,000  Level FlightAware ADS-B (KGUC)
Sat 10:43:02 PM 37.4770 -109.4782 283° West 469 540 32,000 97 Level FlightAware ADS-B (KGUC)
Sat 10:43:32 PM 37.4910 -109.5569 283° West 467 537 32,100  Climbing FlightAware ADS-B (KGUC)
Sat 10:44:02 PM 37.5052 -109.6361 283° West 466 536 32,000 -100 Descending FlightAware ADS-B (KGUC)
Sat 10:44:32 PM 37.5187 -109.7122 283° West 465 535 32,000  Level FlightAware ADS-B (KGUC)
Sat 10:44:47 PM 37.5265 -109.7558 282° West 465 535 32,000  Level FlightAware ADS-B
Sat 10:45:19 PM 37.5413 -109.8397 282° West 464 534 32,000  Level FlightAware ADS-B
Sat 10:45:52 PM 37.5549 -109.9171 282° West 464 534 32,000  Level FlightAware ADS-B (KGUC)
Sat 10:46:22 PM 37.5704 -110.0057 282° West 463 533 32,000  Level FlightAware ADS-B
Sat 10:46:55 PM 37.5857 -110.0929 282° West 464 534 32,000  Level FlightAware ADS-B (KGUC)
Sat 10:47:26 PM 37.5998 -110.1742 282° West 465 535 32,000  Level FlightAware ADS-B (KGUC)
Sat 10:48:11 PM 37.6187 -110.2830 282° West 465 535 32,000  Level FlightAware ADS-B (KGUC)
Sat 10:50:03 PM 37.6711 -110.5897 282° West 465 535 32,000  Level FlightAware ADS-B (KGUC)
Sat 10:50:52 PM 37.6931 -110.7198 282° West 465 535 32,000  Level FlightAware ADS-B (KGUC)
Sat 10:52:02 PM 37.7243 -110.9067 282° West 462 532 32,000  Level FlightAware ADS-B (KGUC)
Sat 10:52:42 PM 37.7416 -111.0102 282° West 461 531 32,000  Level FlightAware ADS-B (KGUC)
Sat 10:53:24 PM 37.7598 -111.1204 282° West 459 528 32,000  Level FlightAware ADS-B
Sat 10:54:37 PM 37.7911 -111.3113 282° West 455 524 32,000  Level FlightAware ADS-B
Sat 10:55:11 PM 37.8058 -111.4017 282° West 456 525 32,000  Level FlightAware ADS-B (KGUC)
Sat 10:55:57 PM 37.8249 -111.5196 281° West 456 525 32,000  Level FlightAware ADS-B
Sat 10:57:05 PM 37.8535 -111.6979 281° West 459 528 32,000  Level FlightAware ADS-B
Sat 10:59:30 PM 37.9140 -112.0812 281° West 463 533 32,000  Level FlightAware ADS-B
Sat 11:00:40 PM 37.9428 -112.2669 281° West 462 532 32,000  Level FlightAware ADS-B
Sat 11:01:54 PM 37.9727 -112.4618 281° West 459 528 32,000  Level FlightAware ADS-B
Sat 11:03:06 PM 38.0014 -112.6515 281° West 458 527 32,000  Level FlightAware ADS-B
Sat 11:04:06 PM 38.0251 -112.8095 281° West 457 526 32,000  Level FlightAware ADS-B
Sat 11:05:05 PM 38.0477 -112.9622 281° West 458 527 32,000  Level FlightAware ADS-B
Sat 11:06:06 PM 38.0715 -113.1236 281° West 458 527 32,000  Level FlightAware ADS-B
Sat 11:06:52 PM 38.0896 -113.2480 280° West 456 525 32,000  Level FlightAware ADS-B
Sat 11:07:27 PM 38.1028 -113.3388 280° West 456 525 32,000  Level FlightAware ADS-B
Sat 11:08:11 PM 38.1194 -113.4543 280° West 454 522 32,000  Level FlightAware ADS-B
Sat 11:08:49 PM 38.1336 -113.5537 280° West 453 521 32,000  Level FlightAware ADS-B
Sat 11:09:26 PM 38.1475 -113.6506 280° West 453 521 32,000  Level FlightAware ADS-B
Sat 11:10:13 PM 38.1649 -113.7745 280° West 453 521 32,000  Level FlightAware ADS-B
Sat 11:11:05 PM 38.1791 -113.8754 288° West 436 502 32,000  Level FlightAware ADS-B
Sat 11:12:26 PM 38.2503 -114.0964 294° West 437 503 32,000  Level FlightAware ADS-B
Sat 11:13:19 PM 38.2938 -114.2217 294° West 436 502 32,000  Level FlightAware ADS-B
Sat 11:14:34 PM 38.3450 -114.3697 294° West 436 502 32,000  Level Salt Lake Center
Sat 11:15:35 PM 38.3944 -114.5103 294° West 436 502 32,000  Level Salt Lake Center
Sat 11:16:36 PM 38.4131 -114.6875 278° West 430 495 32,000  Level Salt Lake Center
Sat 11:17:37 PM 38.3953 -114.8383 261° West 430 495 32,000  Level Salt Lake Center
Sat 11:18:39 PM 38.3772 -114.9906 261° West 431 496 32,000  Level Salt Lake Center
Sat 11:19:40 PM 38.3581 -115.1475 261° West 442 509 32,000  Level Salt Lake Center
Sat 11:20:41 PM 38.3378 -115.3044 261° West 449 517 32,000  Level Salt Lake Center
Sat 11:26:34 PM 38.2212 -116.2128 262° West 431 496 32,000  Level FlightAware ADS-B (EPLL / LCJ)
Sat 11:27:10 PM 38.2092 -116.3027 261° West 430 495 32,000  Level FlightAware ADS-B (EPLL / LCJ)
Sat 11:27:47 PM 38.1969 -116.3939 261° West 430 495 32,000  Level FlightAware ADS-B (EPLL / LCJ)
Sat 11:28:24 PM 38.1844 -116.4868 261° West 430 495 32,000  Level FlightAware ADS-B (EPLL / LCJ)
Sat 11:29:00 PM 38.1722 -116.5762 261° West 430 495 32,000  Level FlightAware ADS-B (EPLL / LCJ)
Sat 11:29:45 PM 38.1567 -116.6895 261° West 429 494 32,000  Level FlightAware ADS-B (EPLL / LCJ)
Sat 11:30:21 PM 38.1443 -116.7791 261° West 429 494 32,000  Level FlightAware ADS-B (EPLL / LCJ)
Sat 11:30:57 PM 38.1319 -116.8683 261° West 429 494 32,000  Level FlightAware ADS-B (EPLL / LCJ)
Sat 11:31:36 PM 38.1185 -116.9650 261° West 429 494 32,000  Level FlightAware ADS-B (EPLL / LCJ)
Sat 11:32:13 PM 38.1056 -117.0576 261° West 428 493 32,000  Level FlightAware ADS-B (EPLL / LCJ)
Sat 11:32:50 PM 38.0929 -117.1479 261° West 429 494 32,000  Level FlightAware ADS-B (EPLL / LCJ)
Sat 11:33:25 PM 38.0796 -117.2362 256° West 429 494 32,000  Level FlightAware ADS-B (EPLL / LCJ)
Sat 11:33:59 PM 38.0492 -117.3124 231° Southwest 430 495 32,000  Level FlightAware ADS-B (EPLL / LCJ)
Sat 11:34:41 PM 37.9870 -117.3769 213° Southwest 405 466 32,000  Level FlightAware ADS-B (EPLL / LCJ)
Sat 11:35:17 PM 37.9306 -117.4229 214° Southwest 389 448 32,000  Level FlightAware ADS-B (EPLL / LCJ)
Sat 11:35:53 PM 37.8744 -117.4688 214° Southwest 389 448 32,000  Level FlightAware ADS-B (EPLL / LCJ)
Sat 11:36:29 PM 37.8197 -117.5139 214° Southwest 390 449 32,000  Level FlightAware ADS-B (EPLL / LCJ)
Sat 11:37:58 PM 37.6961 -117.6164 214° Southwest 398 458 32,000  Level Oakland Center
Sat 11:38:58 PM 37.6036 -117.6911 213° Southwest 396 456 32,000  Level Oakland Center
Sat 11:39:59 PM 37.5214 -117.7817 221° Southwest 395 455 32,000  Level Oakland Center
Sat 11:41:00 PM 37.5064 -117.9175 262° West 398 458 32,000  Level Oakland Center
Sat 11:42:01 PM 37.5139 -118.0569 274° West 398 458 32,000  Level Oakland Center
Sat 11:43:02 PM 37.5214 -118.1975 274° West 400 460 32,000  Level Oakland Center
Sat 11:48:12 PM 37.5563 -118.9476 273° West 402 463 32,000  Level FlightAware ADS-B
Sat 11:48:42 PM 37.5594 -119.0175 273° West 402 463 32,000  Level FlightAware ADS-B
Sat 11:49:58 PM 37.5670 -119.1960 273° West 401 461 32,000  Level FlightAware ADS-B
Sat 11:50:39 PM 37.5708 -119.2890 273° West 402 463 32,000  Level FlightAware ADS-B
Sat 11:51:19 PM 37.5746 -119.3817 273° West 399 459 32,000  Level FlightAware ADS-B
Sat 11:52:35 PM 37.5817 -119.5561 273° West 401 461 32,000  Level FlightAware ADS-B
Sat 11:53:21 PM 37.5857 -119.6640 273° West 398 458 32,000  Level FlightAware ADS-B
Sat 11:54:00 PM 37.5893 -119.7550 273° West 396 456 32,000  Level FlightAware ADS-B
Sat 11:54:41 PM 37.5928 -119.8499 273° West 399 459 32,000  Level FlightAware ADS-B
Sat 11:55:20 PM 37.5961 -119.9403 272° West 399 459 32,000  Level FlightAware ADS-B
Sat 11:56:00 PM 37.5994 -120.0327 273° West 397 457 32,000 -741 Level FlightAware ADS-B
Sat 11:56:41 PM 37.6024 -120.1229 272° West 390 449 31,000 -1,778 Descending FlightAware ADS-B
Sat 11:57:21 PM 37.6051 -120.2090 272° West 383 441 29,600 -2,132 Descending FlightAware ADS-B
Sat 11:57:57 PM 37.6080 -120.2977 272° West 376 433 28,300 -1,823 Descending FlightAware ADS-B
Sat 11:58:40 PM 37.6109 -120.3906 272° West 367 422 27,200 -1,643 Descending FlightAware ADS-B
Sat 11:59:21 PM 37.6132 -120.4613 272° West 356 410 26,000 -1,800 Descending FlightAware ADS-B
Sun 12:00:00 AM 37.6160 -120.5565 272° West 351 404 24,800 -2,026 Descending FlightAware ADS-B
Sun 12:00:38 AM 37.6186 -120.6350 272° West 348 400 23,400 -1,870 Descending FlightAware ADS-B
Sun 12:01:17 AM 37.6208 -120.7132 272° West 350 403 22,400 -1,217 Descending FlightAware ADS-B
Sun 12:01:47 AM 37.6225 -120.7748 272° West 349 402 22,000 -1,031 Descending FlightAware ADS-B
Sun 12:02:21 AM 37.6243 -120.8432 272° West 345 397 21,300 -1,500 Descending FlightAware ADS-B
Sun 12:02:55 AM 37.6263 -120.9109 272° West 341 392 20,300 -1,615 Descending FlightAware ADS-B
Sun 12:03:39 AM 37.6229 -120.9963 262° West 335 386 19,200 -1,425 Descending FlightAware ADS-B
Sun 12:04:15 AM 37.6149 -121.0678 262° West 332 382 18,400 -1,412 Descending FlightAware ADS-B
Sun 12:04:47 AM 37.6081 -121.1274 262° West 330 380 17,600 -1,500 Descending FlightAware ADS-B
Sun 12:05:27 AM 37.5995 -121.2043 262° West 329 379 16,600 -1,575 Descending FlightAware ADS-B
Sun 12:06:07 AM 37.5908 -121.2791 262° West 328 377 15,500 -1,500 Descending FlightAware ADS-B
Sun 12:06:15 AM 37.5890 -121.2950 262° West 328 377 15,400 -1,538 Descending FlightAware ADS-B
Sun 12:06:46 AM 37.5820 -121.3550 262° West 328 377 14,500 -1,688 Descending FlightAware ADS-B
Sun 12:06:47 AM 37.5826 -121.3519 262° West 328 377 14,500 -1,313 Level FlightAware ADS-B
Sun 12:07:18 AM 37.5753 -121.4140 262° West 327 376 13,800 -1,463 Descending FlightAware ADS-B
Sun 12:07:28 AM 37.5730 -121.4330 262° West 322 371 13,500 -2,000 Descending FlightAware ADS-B
Sun 12:07:48 AM 37.5687 -121.4700 262° West 315 362 12,800 -2,250 Descending FlightAware ADS-B
Sun 12:08:08 AM 37.5648 -121.5053 262° West 313 360 12,000 -2,516 Descending FlightAware ADS-B
Sun 12:08:19 AM 37.5621 -121.5270 262° West 311 358 11,500 -1,833 Descending FlightAware ADS-B
Sun 12:08:44 AM 37.5569 -121.5710 260° West 308 354 10,900 -1,448 Descending FlightAware ADS-B
Sun 12:08:48 AM 37.5559 -121.5769 258° West 303 349 10,800 -581 Descending FlightAware ADS-B
Sun 12:09:15 AM 37.5461 -121.6220 254° West 280 322 10,600 -600 Descending FlightAware ADS-B
Sun 12:09:28 AM 37.5417 -121.6414 255° West 270 311 10,400 -968 Descending FlightAware ADS-B
Sun 12:09:46 AM 37.5359 -121.6680 255° West 253 291 10,100 -1,143 Descending FlightAware ADS-B
Sun 12:09:49 AM 37.5347 -121.6731 255° West 251 289 10,000 -1,875 Descending FlightAware ADS-B (EDDM / MUC)
Sun 12:10:02 AM 37.5306 -121.6910 254° West 248 285 9,600 -2,000 Descending FlightAware ADS-B
Sun 12:10:07 AM 37.5292 -121.6978 254° West 246 283 9,400 -1,765 Descending FlightAware ADS-B
Sun 12:10:19 AM 37.5253 -121.7150 254° West 246 283 9,100 -1,667 Descending FlightAware ADS-B
Sun 12:10:25 AM 37.5235 -121.7226 254° West 247 284 8,900 -2,118 Descending FlightAware ADS-B
Sun 12:10:36 AM 37.5202 -121.7370 254° West 248 285 8,500 -2,000 Descending FlightAware ADS-B
Sun 12:10:43 AM 37.5178 -121.7477 254° West 252 290 8,300 -1,600 Descending FlightAware ADS-B
Sun 12:10:51 AM 37.5152 -121.7590 254° West 251 289 8,100 -1,059 Descending FlightAware ADS-B
Sun 12:11:00 AM 37.5124 -121.7720 258° West 249 287 8,000 -1,000 Descending FlightAware ADS-B
Sun 12:11:03 AM 37.5119 -121.7760 262° West 248 285 7,900 -857 Descending FlightAware ADS-B
Sun 12:11:07 AM 37.5115 -121.7811 266° West 246 283 7,900  Level FlightAware ADS-B
Sun 12:11:11 AM 37.5111 -121.7880 268° West 244 281 7,900  Level FlightAware ADS-B
Sun 12:11:23 AM 37.5108 -121.7991 268° West 244 281 7,900  Level FlightAware ADS-B (EPLL / LCJ)
Sun 12:11:28 AM 37.5105 -121.8120 268° West 244 281 7,900  Level FlightAware ADS-B
Sun 12:11:43 AM 37.5100 -121.8326 268° West 244 281 7,900  Level FlightAware ADS-B (EPLL / LCJ)
Sun 12:11:44 AM 37.5099 -121.8340 268° West 244 281 7,900  Level FlightAware ADS-B
Sun 12:12:00 AM 37.5095 -121.8560 268° West 243 280 7,900  Level FlightAware ADS-B
Sun 12:12:02 AM 37.5092 -121.8601 268° West 242 278 7,900 -800 Level FlightAware ADS-B
Sun 12:12:15 AM 37.5088 -121.8780 268° West 240 276 7,700 -800 Descending FlightAware ADS-B
Sun 12:12:17 AM 37.5088 -121.8776 268° West 237 273 7,700 -1,200 Level FlightAware ADS-B (EPLL / LCJ)
Sun 12:12:30 AM 37.5083 -121.8980 268° West 233 268 7,400 -1,895 Descending FlightAware ADS-B
Sun 12:12:36 AM 37.5080 -121.9068 268° West 233 268 7,100 -2,400 Descending FlightAware ADS-B (EPLL / LCJ)
Sun 12:12:45 AM 37.5077 -121.9190 268° West 233 268 6,800 -1,895 Descending FlightAware ADS-B
Sun 12:12:55 AM 37.5073 -121.9320 268° West 234 269 6,500 -1,500 Descending FlightAware ADS-B
Sun 12:12:57 AM 37.5073 -121.9336 268° West 234 269 6,500 -1,600 Level FlightAware ADS-B (EPLL / LCJ)
Sun 12:13:10 AM 37.5068 -121.9530 268° West 237 273 6,100 -1,500 Descending FlightAware ADS-B
Sun 12:13:17 AM 37.5065 -121.9620 268° West 238 274 6,000 -750 Descending FlightAware ADS-B (EPLL / LCJ)
Sun 12:13:26 AM 37.5064 -121.9740 268° West 236 272 5,900 -632 Descending FlightAware ADS-B
Sun 12:13:36 AM 37.5060 -121.9867 268° West 228 262 5,800  Descending FlightAware ADS-B (EPLL / LCJ)
Sun 12:13:41 AM 37.5059 -121.9960 268° West 221 254 5,900 300 Climbing FlightAware ADS-B
Sun 12:13:56 AM 37.5053 -122.0137 268° West 208 239 5,900  Level FlightAware ADS-B (EPLL / LCJ)
Sun 12:13:57 AM 37.5054 -122.0160 268° West 207 238 5,900 -857 Level FlightAware ADS-B
Sun 12:14:10 AM 37.5048 -122.0310 268° West 199 229 5,700 -1,200 Descending FlightAware ADS-B
Sun 12:14:17 AM 37.5046 -122.0379 268° West 196 226 5,500 -1,875 Descending FlightAware ADS-B (EPLL / LCJ)
Sun 12:14:26 AM 37.5045 -122.0490 269° West 193 222 5,200 -2,100 Descending FlightAware ADS-B
Sun 12:14:37 AM 37.5041 -122.0609 269° West 193 222 4,800 -2,000 Descending FlightAware ADS-B (EPLL / LCJ)
Sun 12:14:41 AM 37.5040 -122.0660 269° West 194 223 4,700 -1,263 Descending FlightAware ADS-B
Sun 12:14:56 AM 37.5037 -122.0830 271° West 195 224 4,400 -1,200 Descending FlightAware ADS-B
Sun 12:15:01 AM 37.5041 -122.0880 277° West 194 223 4,300 -1,500 Descending FlightAware ADS-B
Sun 12:15:04 AM 37.5044 -122.0920 281° West 194 223 4,200 -2,000 Descending FlightAware ADS-B
Sun 12:15:07 AM 37.5049 -122.0943 285° West 193 222 4,100 -857 Descending FlightAware ADS-B (EPLL / LCJ)
Sun 12:15:11 AM 37.5059 -122.0990 290° West 192 221 4,100 -750 Level FlightAware ADS-B
Sun 12:15:15 AM 37.5074 -122.1030 293° West 192 221 4,000 -857 Descending FlightAware ADS-B
Sun 12:15:25 AM 37.5112 -122.1133 296° West 189 217 3,900 -522 Descending FlightAware ADS-B (EPLL / LCJ)
Sun 12:15:38 AM 37.5164 -122.1260 297° West 190 219 3,800 -545 Descending FlightAware ADS-B
Sun 12:15:47 AM 37.5199 -122.1352 297° West 191 220 3,700 -800 Descending FlightAware ADS-B (EPLL / LCJ)
Sun 12:15:53 AM 37.5226 -122.1410 298° West 190 219 3,600 -1,143 Descending FlightAware ADS-B
Sun 12:16:08 AM 37.5287 -122.1560 298° West 185 213 3,300 -968 Descending FlightAware ADS-B
Sun 12:16:24 AM 37.5350 -122.1710 298° West 182 209 3,100 -857 Descending FlightAware ADS-B
Sun 12:16:29 AM 37.5367 -122.1748 298° West 181 208 3,000 -1,200 Descending FlightAware ADS-B (EDDM / MUC)
Sun 12:16:39 AM 37.5410 -122.1850 298° West 179 206 2,800 -857 Descending FlightAware ADS-B
Sun 12:16:50 AM 37.5418 -122.1868 298° West 177 204 2,700 -750 Descending FlightAware ADS-B (EDDM / MUC)
Sun 12:16:55 AM 37.5469 -122.1990 298° West 175 201 2,600 -947 Descending FlightAware ADS-B
Sun 12:17:09 AM 37.5524 -122.2120 298° West 176 203 2,400 -828 Descending FlightAware ADS-B
Sun 12:17:24 AM 37.5583 -122.2260 298° West 178 205 2,200 -968 Descending FlightAware ADS-B
Sun 12:17:40 AM 37.5643 -122.2400 298° West 179 206 1,900 -968 Descending FlightAware ADS-B
Sun 12:17:55 AM 37.5702 -122.2540 298° West 180 207 1,700 -774 Descending FlightAware ADS-B
Sun 12:18:11 AM 37.5761 -122.2680 298° West 167 192 1,500 -968 Descending FlightAware ADS-B
Sun 12:18:26 AM 37.5815 -122.2810 298° West 156 180 1,200 -909 Descending FlightAware ADS-B
Sun 12:18:44 AM 37.5873 -122.2950 298° West 147 169 1,000 -783 Descending FlightAware ADS-B
Sun 12:18:49 AM 37.5895 -122.3001 297° West 149 171 900 -800 Descending FlightAware ADS-B (EDDM / MUC)
Sun 12:18:59 AM 37.5920 -122.3060 298° West 143 165 800 -600 Descending FlightAware ADS-B
Sun 12:19:09 AM 37.5955 -122.3144 298° West 138 159 700 -750 Descending FlightAware ADS-B (EDDM / MUC)
Sun 12:19:15 AM 37.5966 -122.3170 298° West 134 154 600 -667 Descending FlightAware ADS-B
Sun 12:19:27 AM 37.6004 -122.3259 297° West 132 152 500 -800 Descending FlightAware ADS-B (EDDM / MUC)
Sun 12:19:30 AM 37.6010 -122.3280 298° West 128 147 400 -667 Descending FlightAware ADS-B
Sun 12:19:36 AM 37.6027 -122.3310 297° West 128 147 400 -462 Level FlightAware ADS-B
Sun 12:19:43 AM 37.6045 -122.3360 298° West 129 148 300 -857 Descending FlightAware ADS-B
Sun 12:19:57 AM 37.6087 -122.3450 298° West 126 145 100 -857 Descending FlightAware ADS-B
Sun 12:20:17 AM 37.6140 -122.3580 297° West 131 151 -300 Descending FlightAware ADS-B
Sun 12:20:29 AM 37.6179 -122.3676 297° West 132 152  Level FlightAware ADS-B (EDDM / MUC)

Login

Don't have an account? Register now (free) for customized features, flight alerts, and more!